sensor_id;sensor_type;location;lat;lon;timestamp;P1;durP1;ratioP1;P2;durP2;ratioP2
42754;SDS011;28407;51.830;5.684;2022-12-11T00:01:45;29.05;;;14.75;;
42754;SDS011;28407;51.830;5.684;2022-12-11T00:03:46;28.92;;;13.07;;
42754;SDS011;28407;51.830;5.684;2022-12-11T00:05:47;33.25;;;16.15;;
42754;SDS011;28407;51.830;5.684;2022-12-11T00:07:47;34.50;;;17.42;;
42754;SDS011;28407;51.830;5.684;2022-12-11T00:09:48;35.30;;;15.23;;
42754;SDS011;28407;51.830;5.684;2022-12-11T00:11:49;25.17;;;13.63;;
42754;SDS011;28407;51.830;5.684;2022-12-11T00:13:49;34.75;;;15.63;;
42754;SDS011;28407;51.830;5.684;2022-12-11T00:15:50;31.00;;;15.30;;
42754;SDS011;28407;51.830;5.684;2022-12-11T00:17:50;31.88;;;14.82;;
42754;SDS011;28407;51.830;5.684;2022-12-11T00:19:51;30.15;;;14.15;;
42754;SDS011;28407;51.830;5.684;2022-12-11T00:21:52;27.95;;;14.95;;
42754;SDS011;28407;51.830;5.684;2022-12-11T00:23:53;32.97;;;15.15;;
42754;SDS011;28407;51.830;5.684;2022-12-11T00:25:54;28.80;;;15.70;;
42754;SDS011;28407;51.830;5.684;2022-12-11T00:27:54;26.33;;;12.05;;
42754;SDS011;28407;51.830;5.684;2022-12-11T00:29:55;27.00;;;14.68;;
42754;SDS011;28407;51.830;5.684;2022-12-11T00:31:55;35.38;;;15.88;;
42754;SDS011;28407;51.830;5.684;2022-12-11T00:33:56;28.92;;;14.50;;
42754;SDS011;28407;51.830;5.684;2022-12-11T00:35:57;36.70;;;16.13;;
42754;SDS011;28407;51.830;5.684;2022-12-11T00:37:57;34.40;;;16.17;;
42754;SDS011;28407;51.830;5.684;2022-12-11T00:39:58;33.78;;;16.60;;
42754;SDS011;28407;51.830;5.684;2022-12-11T00:41:58;32.42;;;15.48;;
42754;SDS011;28407;51.830;5.684;2022-12-11T00:43:59;34.88;;;16.40;;
42754;SDS011;28407;51.830;5.684;2022-12-11T00:46:00;32.75;;;14.70;;
42754;SDS011;28407;51.830;5.684;2022-12-11T00:48:01;38.47;;;15.93;;
42754;SDS011;28407;51.830;5.684;2022-12-11T00:50:02;37.40;;;16.30;;
42754;SDS011;28407;51.830;5.684;2022-12-11T00:52:03;39.00;;;17.07;;
42754;SDS011;28407;51.830;5.684;2022-12-11T00:54:04;31.35;;;15.27;;
42754;SDS011;28407;51.830;5.684;2022-12-11T00:56:14;35.08;;;16.10;;
42754;SDS011;28407;51.830;5.684;2022-12-11T00:58:16;33.47;;;16.85;;
42754;SDS011;28407;51.830;5.684;2022-12-11T01:00:17;35.85;;;17.00;;
42754;SDS011;28407;51.830;5.684;2022-12-11T01:02:18;34.67;;;16.10;;
42754;SDS011;28407;51.830;5.684;2022-12-11T01:04:19;32.97;;;13.40;;
42754;SDS011;28407;51.830;5.684;2022-12-11T01:06:20;33.47;;;15.25;;
42754;SDS011;28407;51.830;5.684;2022-12-11T01:08:26;30.13;;;13.90;;
42754;SDS011;28407;51.830;5.684;2022-12-11T01:10:27;42.78;;;16.15;;
42754;SDS011;28407;51.830;5.684;2022-12-11T01:12:28;32.60;;;15.85;;
42754;SDS011;28407;51.830;5.684;2022-12-11T01:14:28;35.85;;;16.10;;
42754;SDS011;28407;51.830;5.684;2022-12-11T01:16:29;41.53;;;19.88;;
42754;SDS011;28407;51.830;5.684;2022-12-11T01:18:30;29.67;;;14.68;;
42754;SDS011;28407;51.830;5.684;2022-12-11T01:20:30;29.60;;;14.25;;
42754;SDS011;28407;51.830;5.684;2022-12-11T01:22:31;33.75;;;14.93;;
42754;SDS011;28407;51.830;5.684;2022-12-11T01:24:32;26.38;;;13.50;;
42754;SDS011;28407;51.830;5.684;2022-12-11T01:26:32;32.33;;;17.83;;
42754;SDS011;28407;51.830;5.684;2022-12-11T01:28:33;31.80;;;14.65;;
42754;SDS011;28407;51.830;5.684;2022-12-11T01:30:34;35.58;;;16.73;;
42754;SDS011;28407;51.830;5.684;2022-12-11T01:32:35;36.55;;;16.25;;
42754;SDS011;28407;51.830;5.684;2022-12-11T01:34:36;32.75;;;14.93;;
42754;SDS011;28407;51.830;5.684;2022-12-11T01:36:37;32.15;;;15.07;;
42754;SDS011;28407;51.830;5.684;2022-12-11T01:38:37;22.17;;;10.73;;
42754;SDS011;28407;51.830;5.684;2022-12-11T01:40:43;31.25;;;15.35;;
42754;SDS011;28407;51.830;5.684;2022-12-11T01:42:48;33.38;;;16.38;;
42754;SDS011;28407;51.830;5.684;2022-12-11T01:46:49;40.25;;;15.98;;
42754;SDS011;28407;51.830;5.684;2022-12-11T01:48:50;30.98;;;15.15;;
42754;SDS011;28407;51.830;5.684;2022-12-11T01:50:59;31.80;;;14.98;;
42754;SDS011;28407;51.830;5.684;2022-12-11T01:53:05;27.33;;;11.13;;
42754;SDS011;28407;51.830;5.684;2022-12-11T01:55:09;28.40;;;13.82;;
42754;SDS011;28407;51.830;5.684;2022-12-11T01:57:10;38.25;;;16.90;;
42754;SDS011;28407;51.830;5.684;2022-12-11T01:59:13;30.67;;;13.35;;
42754;SDS011;28407;51.830;5.684;2022-12-11T02:01:59;32.92;;;15.45;;
42754;SDS011;28407;51.830;5.684;2022-12-11T02:04:09;39.53;;;18.17;;
42754;SDS011;28407;51.830;5.684;2022-12-11T02:06:45;33.33;;;14.95;;
42754;SDS011;28407;51.830;5.684;2022-12-11T02:08:39;31.50;;;14.10;;
42754;SDS011;28407;51.830;5.684;2022-12-11T02:10:47;30.90;;;15.05;;
42754;SDS011;28407;51.830;5.684;2022-12-11T02:12:59;27.83;;;15.07;;
42754;SDS011;28407;51.830;5.684;2022-12-11T02:22:12;31.77;;;13.60;;
42754;SDS011;28407;51.830;5.684;2022-12-11T02:28:55;29.42;;;13.48;;
42754;SDS011;28407;51.830;5.684;2022-12-11T02:31:06;38.50;;;16.42;;
42754;SDS011;28407;51.830;5.684;2022-12-11T02:33:12;31.70;;;15.10;;
42754;SDS011;28407;51.830;5.684;2022-12-11T02:37:19;27.85;;;14.15;;
42754;SDS011;28407;51.830;5.684;2022-12-11T02:39:22;33.88;;;14.90;;
42754;SDS011;28407;51.830;5.684;2022-12-11T02:41:26;32.97;;;14.57;;
42754;SDS011;28407;51.830;5.684;2022-12-11T02:43:29;30.23;;;14.20;;
42754;SDS011;28407;51.830;5.684;2022-12-11T02:45:32;33.55;;;16.55;;
42754;SDS011;28407;51.830;5.684;2022-12-11T02:47:34;35.35;;;16.10;;
42754;SDS011;28407;51.830;5.684;2022-12-11T02:51:41;42.57;;;17.33;;
42754;SDS011;28407;51.830;5.684;2022-12-11T02:53:43;38.85;;;16.13;;
42754;SDS011;28407;51.830;5.684;2022-12-11T02:55:46;33.38;;;15.15;;
42754;SDS011;28407;51.830;5.684;2022-12-11T02:57:55;31.77;;;16.20;;
42754;SDS011;28407;51.830;5.684;2022-12-11T03:00:07;37.50;;;18.77;;
42754;SDS011;28407;51.830;5.684;2022-12-11T03:02:09;38.10;;;17.15;;
42754;SDS011;28407;51.830;5.684;2022-12-11T03:04:11;31.60;;;14.38;;
42754;SDS011;28407;51.830;5.684;2022-12-11T03:06:12;35.85;;;17.02;;
42754;SDS011;28407;51.830;5.684;2022-12-11T03:08:17;35.92;;;16.27;;
42754;SDS011;28407;51.830;5.684;2022-12-11T03:10:17;34.17;;;15.73;;
42754;SDS011;28407;51.830;5.684;2022-12-11T03:12:19;32.33;;;16.70;;
42754;SDS011;28407;51.830;5.684;2022-12-11T03:14:25;36.90;;;14.68;;
42754;SDS011;28407;51.830;5.684;2022-12-11T03:16:29;31.75;;;15.55;;
42754;SDS011;28407;51.830;5.684;2022-12-11T03:18:43;27.95;;;15.57;;
42754;SDS011;28407;51.830;5.684;2022-12-11T03:24:16;28.45;;;11.77;;
42754;SDS011;28407;51.830;5.684;2022-12-11T03:26:05;30.50;;;13.43;;
42754;SDS011;28407;51.830;5.684;2022-12-11T03:28:11;31.77;;;13.65;;
42754;SDS011;28407;51.830;5.684;2022-12-11T03:30:31;33.80;;;13.40;;
42754;SDS011;28407;51.830;5.684;2022-12-11T03:32:37;32.35;;;14.90;;
42754;SDS011;28407;51.830;5.684;2022-12-11T03:34:44;35.53;;;15.93;;
42754;SDS011;28407;51.830;5.684;2022-12-11T03:36:51;34.22;;;16.58;;
42754;SDS011;28407;51.830;5.684;2022-12-11T03:38:58;32.08;;;15.93;;
42754;SDS011;28407;51.830;5.684;2022-12-11T03:41:14;32.53;;;15.73;;
42754;SDS011;28407;51.830;5.684;2022-12-11T03:43:20;32.50;;;16.80;;
42754;SDS011;28407;51.830;5.684;2022-12-11T03:45:22;28.45;;;15.60;;
42754;SDS011;28407;51.830;5.684;2022-12-11T03:47:25;35.63;;;15.88;;
42754;SDS011;28407;51.830;5.684;2022-12-11T03:49:28;30.60;;;15.90;;
42754;SDS011;28407;51.830;5.684;2022-12-11T03:51:34;31.48;;;15.82;;
42754;SDS011;28407;51.830;5.684;2022-12-11T03:53:36;28.10;;;14.05;;
42754;SDS011;28407;51.830;5.684;2022-12-11T03:55:38;27.83;;;14.18;;
42754;SDS011;28407;51.830;5.684;2022-12-11T03:57:40;28.80;;;14.68;;
42754;SDS011;28407;51.830;5.684;2022-12-11T03:59:41;32.40;;;16.30;;
42754;SDS011;28407;51.830;5.684;2022-12-11T04:01:41;34.30;;;19.58;;
42754;SDS011;28407;51.830;5.684;2022-12-11T04:03:42;30.00;;;16.23;;
42754;SDS011;28407;51.830;5.684;2022-12-11T04:07:45;28.17;;;14.13;;
42754;SDS011;28407;51.830;5.684;2022-12-11T04:09:46;31.42;;;15.43;;
42754;SDS011;28407;51.830;5.684;2022-12-11T04:11:46;29.20;;;15.00;;
42754;SDS011;28407;51.830;5.684;2022-12-11T04:13:47;25.88;;;14.00;;
42754;SDS011;28407;51.830;5.684;2022-12-11T04:16:08;32.22;;;16.48;;
42754;SDS011;28407;51.830;5.684;2022-12-11T04:18:08;26.75;;;14.48;;
42754;SDS011;28407;51.830;5.684;2022-12-11T04:20:27;25.38;;;13.60;;
42754;SDS011;28407;51.830;5.684;2022-12-11T04:22:47;31.00;;;14.63;;
42754;SDS011;28407;51.830;5.684;2022-12-11T04:25:06;29.35;;;15.02;;
42754;SDS011;28407;51.830;5.684;2022-12-11T04:27:07;35.33;;;15.75;;
42754;SDS011;28407;51.830;5.684;2022-12-11T04:29:08;32.83;;;16.77;;
42754;SDS011;28407;51.830;5.684;2022-12-11T04:31:12;22.77;;;13.23;;
42754;SDS011;28407;51.830;5.684;2022-12-11T04:33:18;28.95;;;16.30;;
42754;SDS011;28407;51.830;5.684;2022-12-11T04:35:19;27.65;;;13.70;;
42754;SDS011;28407;51.830;5.684;2022-12-11T04:37:21;27.13;;;14.10;;
42754;SDS011;28407;51.830;5.684;2022-12-11T04:39:21;23.63;;;13.52;;
42754;SDS011;28407;51.830;5.684;2022-12-11T04:41:22;27.08;;;13.52;;
42754;SDS011;28407;51.830;5.684;2022-12-11T04:43:23;23.20;;;12.32;;
42754;SDS011;28407;51.830;5.684;2022-12-11T04:45:23;24.58;;;12.27;;
42754;SDS011;28407;51.830;5.684;2022-12-11T04:47:24;25.05;;;12.18;;
42754;SDS011;28407;51.830;5.684;2022-12-11T04:49:24;26.58;;;14.63;;
42754;SDS011;28407;51.830;5.684;2022-12-11T04:51:25;20.17;;;12.43;;
42754;SDS011;28407;51.830;5.684;2022-12-11T04:55:28;27.60;;;15.85;;
42754;SDS011;28407;51.830;5.684;2022-12-11T04:57:28;21.33;;;11.95;;
42754;SDS011;28407;51.830;5.684;2022-12-11T04:59:30;26.90;;;15.43;;
42754;SDS011;28407;51.830;5.684;2022-12-11T05:01:33;21.13;;;13.27;;
42754;SDS011;28407;51.830;5.684;2022-12-11T05:03:34;22.38;;;13.43;;
42754;SDS011;28407;51.830;5.684;2022-12-11T05:05:35;25.85;;;13.88;;
42754;SDS011;28407;51.830;5.684;2022-12-11T05:07:36;18.38;;;12.40;;
42754;SDS011;28407;51.830;5.684;2022-12-11T05:09:37;20.38;;;13.30;;
42754;SDS011;28407;51.830;5.684;2022-12-11T05:11:37;18.27;;;12.05;;
42754;SDS011;28407;51.830;5.684;2022-12-11T05:13:38;19.23;;;13.05;;
42754;SDS011;28407;51.830;5.684;2022-12-11T05:15:38;14.95;;;9.48;;
42754;SDS011;28407;51.830;5.684;2022-12-11T05:17:39;16.42;;;11.52;;
42754;SDS011;28407;51.830;5.684;2022-12-11T05:19:40;18.17;;;11.15;;
42754;SDS011;28407;51.830;5.684;2022-12-11T05:21:40;15.90;;;10.90;;
42754;SDS011;28407;51.830;5.684;2022-12-11T05:23:41;16.95;;;11.10;;
42754;SDS011;28407;51.830;5.684;2022-12-11T05:25:42;17.45;;;11.38;;
42754;SDS011;28407;51.830;5.684;2022-12-11T05:27:50;18.80;;;13.05;;
42754;SDS011;28407;51.830;5.684;2022-12-11T05:29:50;21.58;;;13.77;;
42754;SDS011;28407;51.830;5.684;2022-12-11T05:31:51;21.35;;;13.35;;
42754;SDS011;28407;51.830;5.684;2022-12-11T05:33:52;18.00;;;10.73;;
42754;SDS011;28407;51.830;5.684;2022-12-11T05:35:53;18.98;;;11.25;;
42754;SDS011;28407;51.830;5.684;2022-12-11T05:37:53;16.60;;;11.77;;
42754;SDS011;28407;51.830;5.684;2022-12-11T05:39:54;17.67;;;9.38;;
42754;SDS011;28407;51.830;5.684;2022-12-11T05:41:55;17.42;;;12.10;;
42754;SDS011;28407;51.830;5.684;2022-12-11T05:43:55;19.90;;;12.85;;
42754;SDS011;28407;51.830;5.684;2022-12-11T05:46:03;16.90;;;12.13;;
42754;SDS011;28407;51.830;5.684;2022-12-11T05:48:08;15.70;;;11.25;;
42754;SDS011;28407;51.830;5.684;2022-12-11T05:50:09;15.88;;;10.68;;
42754;SDS011;28407;51.830;5.684;2022-12-11T05:52:09;14.10;;;10.00;;
42754;SDS011;28407;51.830;5.684;2022-12-11T05:54:11;17.33;;;10.98;;
42754;SDS011;28407;51.830;5.684;2022-12-11T05:56:13;15.50;;;10.85;;
42754;SDS011;28407;51.830;5.684;2022-12-11T05:58:16;16.10;;;10.15;;
42754;SDS011;28407;51.830;5.684;2022-12-11T06:00:16;17.50;;;12.10;;
42754;SDS011;28407;51.830;5.684;2022-12-11T06:02:17;14.35;;;10.15;;
42754;SDS011;28407;51.830;5.684;2022-12-11T06:04:18;15.75;;;10.27;;
42754;SDS011;28407;51.830;5.684;2022-12-11T06:06:18;15.95;;;10.75;;
42754;SDS011;28407;51.830;5.684;2022-12-11T06:08:19;16.95;;;11.45;;
42754;SDS011;28407;51.830;5.684;2022-12-11T06:10:20;14.68;;;10.30;;
42754;SDS011;28407;51.830;5.684;2022-12-11T06:12:20;16.60;;;11.48;;
42754;SDS011;28407;51.830;5.684;2022-12-11T06:14:21;12.77;;;8.88;;
42754;SDS011;28407;51.830;5.684;2022-12-11T06:16:22;15.10;;;10.02;;
42754;SDS011;28407;51.830;5.684;2022-12-11T06:18:23;14.23;;;9.80;;
42754;SDS011;28407;51.830;5.684;2022-12-11T06:20:24;15.82;;;10.82;;
42754;SDS011;28407;51.830;5.684;2022-12-11T06:22:24;14.15;;;10.55;;
42754;SDS011;28407;51.830;5.684;2022-12-11T06:24:25;15.70;;;9.45;;
42754;SDS011;28407;51.830;5.684;2022-12-11T06:26:26;15.88;;;9.05;;
42754;SDS011;28407;51.830;5.684;2022-12-11T06:28:27;12.45;;;8.55;;
42754;SDS011;28407;51.830;5.684;2022-12-11T06:30:28;14.93;;;9.65;;
42754;SDS011;28407;51.830;5.684;2022-12-11T06:32:29;15.43;;;10.57;;
42754;SDS011;28407;51.830;5.684;2022-12-11T06:34:30;14.82;;;10.55;;
42754;SDS011;28407;51.830;5.684;2022-12-11T06:36:30;13.45;;;10.98;;
42754;SDS011;28407;51.830;5.684;2022-12-11T06:38:31;14.25;;;10.50;;
42754;SDS011;28407;51.830;5.684;2022-12-11T06:40:31;14.00;;;10.20;;
42754;SDS011;28407;51.830;5.684;2022-12-11T06:42:32;13.85;;;10.23;;
42754;SDS011;28407;51.830;5.684;2022-12-11T06:44:33;12.60;;;8.75;;
42754;SDS011;28407;51.830;5.684;2022-12-11T06:46:34;13.63;;;9.90;;
42754;SDS011;28407;51.830;5.684;2022-12-11T06:48:34;16.05;;;10.40;;
42754;SDS011;28407;51.830;5.684;2022-12-11T06:50:36;13.43;;;10.23;;
42754;SDS011;28407;51.830;5.684;2022-12-11T06:52:37;14.48;;;9.50;;
42754;SDS011;28407;51.830;5.684;2022-12-11T06:54:38;17.88;;;10.77;;
42754;SDS011;28407;51.830;5.684;2022-12-11T06:56:38;14.15;;;9.52;;
42754;SDS011;28407;51.830;5.684;2022-12-11T06:58:39;12.88;;;9.18;;
42754;SDS011;28407;51.830;5.684;2022-12-11T07:00:41;12.07;;;8.25;;
42754;SDS011;28407;51.830;5.684;2022-12-11T07:02:42;11.48;;;8.05;;
42754;SDS011;28407;51.830;5.684;2022-12-11T07:04:42;11.43;;;8.60;;
42754;SDS011;28407;51.830;5.684;2022-12-11T07:06:43;12.63;;;9.30;;
42754;SDS011;28407;51.830;5.684;2022-12-11T07:08:44;12.48;;;7.90;;
42754;SDS011;28407;51.830;5.684;2022-12-11T07:10:44;11.32;;;7.50;;
42754;SDS011;28407;51.830;5.684;2022-12-11T07:12:45;10.55;;;8.30;;
42754;SDS011;28407;51.830;5.684;2022-12-11T07:14:46;12.57;;;8.70;;
42754;SDS011;28407;51.830;5.684;2022-12-11T07:16:46;12.02;;;8.25;;
42754;SDS011;28407;51.830;5.684;2022-12-11T07:18:48;14.50;;;8.48;;
42754;SDS011;28407;51.830;5.684;2022-12-11T07:20:49;14.73;;;10.10;;
42754;SDS011;28407;51.830;5.684;2022-12-11T07:22:50;14.30;;;9.63;;
42754;SDS011;28407;51.830;5.684;2022-12-11T07:24:53;14.70;;;10.55;;
42754;SDS011;28407;51.830;5.684;2022-12-11T07:26:53;14.73;;;9.73;;
42754;SDS011;28407;51.830;5.684;2022-12-11T07:28:57;12.73;;;8.85;;
42754;SDS011;28407;51.830;5.684;2022-12-11T07:30:58;13.75;;;9.73;;
42754;SDS011;28407;51.830;5.684;2022-12-11T07:32:59;12.68;;;8.85;;
42754;SDS011;28407;51.830;5.684;2022-12-11T07:34:59;10.70;;;8.32;;
42754;SDS011;28407;51.830;5.684;2022-12-11T07:37:00;11.20;;;8.07;;
42754;SDS011;28407;51.830;5.684;2022-12-11T07:39:00;13.10;;;9.90;;
42754;SDS011;28407;51.830;5.684;2022-12-11T07:41:02;12.10;;;8.65;;
42754;SDS011;28407;51.830;5.684;2022-12-11T07:43:06;11.23;;;9.02;;
42754;SDS011;28407;51.830;5.684;2022-12-11T07:45:06;12.10;;;8.73;;
42754;SDS011;28407;51.830;5.684;2022-12-11T07:47:07;9.82;;;7.50;;
42754;SDS011;28407;51.830;5.684;2022-12-11T07:49:08;12.88;;;8.75;;
42754;SDS011;28407;51.830;5.684;2022-12-11T07:51:18;11.70;;;9.93;;
42754;SDS011;28407;51.830;5.684;2022-12-11T07:53:29;11.55;;;8.45;;
42754;SDS011;28407;51.830;5.684;2022-12-11T07:55:30;12.32;;;9.25;;
42754;SDS011;28407;51.830;5.684;2022-12-11T07:57:31;13.43;;;8.38;;
42754;SDS011;28407;51.830;5.684;2022-12-11T07:59:32;11.20;;;7.88;;
42754;SDS011;28407;51.830;5.684;2022-12-11T08:01:33;12.90;;;8.57;;
42754;SDS011;28407;51.830;5.684;2022-12-11T08:03:35;11.80;;;7.97;;
42754;SDS011;28407;51.830;5.684;2022-12-11T08:05:36;12.80;;;9.18;;
42754;SDS011;28407;51.830;5.684;2022-12-11T08:07:36;13.75;;;9.52;;
42754;SDS011;28407;51.830;5.684;2022-12-11T08:09:37;10.93;;;8.40;;
42754;SDS011;28407;51.830;5.684;2022-12-11T08:11:38;10.60;;;7.97;;
42754;SDS011;28407;51.830;5.684;2022-12-11T08:13:38;12.70;;;10.73;;
42754;SDS011;28407;51.830;5.684;2022-12-11T08:15:39;13.63;;;8.00;;
42754;SDS011;28407;51.830;5.684;2022-12-11T08:17:40;13.82;;;9.90;;
42754;SDS011;28407;51.830;5.684;2022-12-11T08:19:41;10.52;;;8.40;;
42754;SDS011;28407;51.830;5.684;2022-12-11T08:21:41;12.27;;;8.38;;
42754;SDS011;28407;51.830;5.684;2022-12-11T08:23:42;11.25;;;8.07;;
42754;SDS011;28407;51.830;5.684;2022-12-11T08:25:43;14.15;;;10.55;;
42754;SDS011;28407;51.830;5.684;2022-12-11T08:27:44;8.82;;;6.68;;
42754;SDS011;28407;51.830;5.684;2022-12-11T08:29:44;13.55;;;9.02;;
42754;SDS011;28407;51.830;5.684;2022-12-11T08:31:46;13.20;;;9.05;;
42754;SDS011;28407;51.830;5.684;2022-12-11T08:33:47;12.23;;;8.77;;
42754;SDS011;28407;51.830;5.684;2022-12-11T08:35:48;10.23;;;7.35;;
42754;SDS011;28407;51.830;5.684;2022-12-11T08:37:48;12.32;;;9.00;;
42754;SDS011;28407;51.830;5.684;2022-12-11T08:39:49;13.30;;;8.65;;
42754;SDS011;28407;51.830;5.684;2022-12-11T08:41:50;12.07;;;8.02;;
42754;SDS011;28407;51.830;5.684;2022-12-11T08:43:50;11.50;;;9.40;;
42754;SDS011;28407;51.830;5.684;2022-12-11T08:45:53;10.40;;;8.30;;
42754;SDS011;28407;51.830;5.684;2022-12-11T08:47:54;10.88;;;7.45;;
42754;SDS011;28407;51.830;5.684;2022-12-11T08:49:55;12.88;;;8.98;;
42754;SDS011;28407;51.830;5.684;2022-12-11T08:51:55;9.63;;;6.78;;
42754;SDS011;28407;51.830;5.684;2022-12-11T08:53:57;14.80;;;9.90;;
42754;SDS011;28407;51.830;5.684;2022-12-11T08:55:59;12.93;;;8.40;;
42754;SDS011;28407;51.830;5.684;2022-12-11T08:58:01;10.77;;;8.25;;
42754;SDS011;28407;51.830;5.684;2022-12-11T09:00:02;12.17;;;9.37;;
42754;SDS011;28407;51.830;5.684;2022-12-11T09:02:03;11.85;;;8.23;;
42754;SDS011;28407;51.830;5.684;2022-12-11T09:04:04;12.07;;;8.75;;
42754;SDS011;28407;51.830;5.684;2022-12-11T09:06:05;11.48;;;8.52;;
42754;SDS011;28407;51.830;5.684;2022-12-11T09:08:08;13.02;;;8.73;;
42754;SDS011;28407;51.830;5.684;2022-12-11T09:10:09;13.15;;;8.85;;
42754;SDS011;28407;51.830;5.684;2022-12-11T09:12:09;12.18;;;8.75;;
42754;SDS011;28407;51.830;5.684;2022-12-11T09:14:10;13.05;;;8.85;;
42754;SDS011;28407;51.830;5.684;2022-12-11T09:16:11;14.27;;;9.00;;
42754;SDS011;28407;51.830;5.684;2022-12-11T09:18:14;11.18;;;8.75;;
42754;SDS011;28407;51.830;5.684;2022-12-11T09:20:15;16.70;;;10.00;;
42754;SDS011;28407;51.830;5.684;2022-12-11T09:22:15;12.90;;;8.93;;
42754;SDS011;28407;51.830;5.684;2022-12-11T09:24:16;13.90;;;9.90;;
42754;SDS011;28407;51.830;5.684;2022-12-11T09:26:17;14.27;;;9.52;;
42754;SDS011;28407;51.830;5.684;2022-12-11T09:28:18;11.07;;;8.15;;
42754;SDS011;28407;51.830;5.684;2022-12-11T09:30:18;13.60;;;10.02;;
42754;SDS011;28407;51.830;5.684;2022-12-11T09:32:19;12.98;;;8.52;;
42754;SDS011;28407;51.830;5.684;2022-12-11T09:34:20;13.48;;;9.80;;
42754;SDS011;28407;51.830;5.684;2022-12-11T09:36:21;12.43;;;9.20;;
42754;SDS011;28407;51.830;5.684;2022-12-11T09:38:21;12.20;;;9.15;;
42754;SDS011;28407;51.830;5.684;2022-12-11T09:40:22;13.25;;;8.75;;
42754;SDS011;28407;51.830;5.684;2022-12-11T09:42:30;14.35;;;9.68;;
42754;SDS011;28407;51.830;5.684;2022-12-11T09:46:44;10.70;;;7.80;;
42754;SDS011;28407;51.830;5.684;2022-12-11T09:48:46;10.60;;;7.28;;
42754;SDS011;28407;51.830;5.684;2022-12-11T09:50:49;10.85;;;7.90;;
42754;SDS011;28407;51.830;5.684;2022-12-11T09:55:50;11.27;;;7.78;;
42754;SDS011;28407;51.830;5.684;2022-12-11T09:58:05;12.23;;;8.35;;
42754;SDS011;28407;51.830;5.684;2022-12-11T10:00:37;16.92;;;10.18;;
42754;SDS011;28407;51.830;5.684;2022-12-11T10:02:46;12.48;;;9.48;;
42754;SDS011;28407;51.830;5.684;2022-12-11T10:05:25;12.10;;;8.75;;
42754;SDS011;28407;51.830;5.684;2022-12-11T10:07:55;13.85;;;10.40;;
42754;SDS011;28407;51.830;5.684;2022-12-11T10:10:13;11.48;;;9.02;;
42754;SDS011;28407;51.830;5.684;2022-12-11T10:17:12;14.75;;;11.15;;
42754;SDS011;28407;51.830;5.684;2022-12-11T10:19:26;15.55;;;11.07;;
42754;SDS011;28407;51.830;5.684;2022-12-11T10:21:36;14.98;;;12.15;;
42754;SDS011;28407;51.830;5.684;2022-12-11T10:23:42;17.08;;;10.75;;
42754;SDS011;28407;51.830;5.684;2022-12-11T10:25:54;13.32;;;10.60;;
42754;SDS011;28407;51.830;5.684;2022-12-11T10:28:11;15.63;;;10.52;;
42754;SDS011;28407;51.830;5.684;2022-12-11T10:30:21;16.20;;;11.32;;
42754;SDS011;28407;51.830;5.684;2022-12-11T10:32:23;14.80;;;10.55;;
42754;SDS011;28407;51.830;5.684;2022-12-11T10:34:36;16.38;;;10.93;;
42754;SDS011;28407;51.830;5.684;2022-12-11T10:36:43;14.65;;;11.18;;
42754;SDS011;28407;51.830;5.684;2022-12-11T10:38:44;15.43;;;10.80;;
42754;SDS011;28407;51.830;5.684;2022-12-11T10:40:48;16.25;;;12.38;;
42754;SDS011;28407;51.830;5.684;2022-12-11T10:42:53;15.20;;;11.43;;
42754;SDS011;28407;51.830;5.684;2022-12-11T10:44:58;17.70;;;11.43;;
42754;SDS011;28407;51.830;5.684;2022-12-11T10:47:05;14.07;;;11.52;;
42754;SDS011;28407;51.830;5.684;2022-12-11T10:49:23;13.45;;;10.75;;
42754;SDS011;28407;51.830;5.684;2022-12-11T10:53:34;17.52;;;11.70;;
42754;SDS011;28407;51.830;5.684;2022-12-11T10:55:44;11.80;;;9.43;;
42754;SDS011;28407;51.830;5.684;2022-12-11T10:57:53;15.20;;;10.93;;
42754;SDS011;28407;51.830;5.684;2022-12-11T10:59:59;14.77;;;9.77;;
42754;SDS011;28407;51.830;5.684;2022-12-11T11:02:00;16.13;;;10.63;;
42754;SDS011;28407;51.830;5.684;2022-12-11T11:04:46;14.85;;;10.80;;
42754;SDS011;28407;51.830;5.684;2022-12-11T11:06:32;13.57;;;10.27;;
42754;SDS011;28407;51.830;5.684;2022-12-11T11:08:43;17.65;;;10.38;;
42754;SDS011;28407;51.830;5.684;2022-12-11T11:17:15;15.80;;;10.90;;
42754;SDS011;28407;51.830;5.684;2022-12-11T11:19:21;15.10;;;10.02;;
42754;SDS011;28407;51.830;5.684;2022-12-11T11:21:29;15.30;;;10.13;;
42754;SDS011;28407;51.830;5.684;2022-12-11T11:23:31;15.93;;;9.95;;
42754;SDS011;28407;51.830;5.684;2022-12-11T11:25:33;16.20;;;10.75;;
42754;SDS011;28407;51.830;5.684;2022-12-11T11:27:41;15.63;;;10.07;;
42754;SDS011;28407;51.830;5.684;2022-12-11T11:29:43;14.73;;;10.70;;
42754;SDS011;28407;51.830;5.684;2022-12-11T11:31:44;14.88;;;10.65;;
42754;SDS011;28407;51.830;5.684;2022-12-11T11:33:51;15.23;;;11.30;;
42754;SDS011;28407;51.830;5.684;2022-12-11T11:36:00;14.60;;;10.52;;
42754;SDS011;28407;51.830;5.684;2022-12-11T11:38:04;14.55;;;10.18;;
42754;SDS011;28407;51.830;5.684;2022-12-11T11:40:24;17.50;;;11.82;;
42754;SDS011;28407;51.830;5.684;2022-12-11T11:42:31;17.65;;;10.68;;
42754;SDS011;28407;51.830;5.684;2022-12-11T11:44:51;14.52;;;10.35;;
42754;SDS011;28407;51.830;5.684;2022-12-11T11:47:33;17.38;;;11.57;;
42754;SDS011;28407;51.830;5.684;2022-12-11T11:53:49;12.15;;;8.88;;
42754;SDS011;28407;51.830;5.684;2022-12-11T11:58:15;15.57;;;10.30;;
42754;SDS011;28407;51.830;5.684;2022-12-11T12:00:22;13.60;;;9.02;;
42754;SDS011;28407;51.830;5.684;2022-12-11T12:02:25;19.10;;;11.88;;
42754;SDS011;28407;51.830;5.684;2022-12-11T12:04:29;14.95;;;11.13;;
42754;SDS011;28407;51.830;5.684;2022-12-11T12:06:35;18.00;;;11.30;;
42754;SDS011;28407;51.830;5.684;2022-12-11T12:08:51;13.93;;;9.45;;
42754;SDS011;28407;51.830;5.684;2022-12-11T12:15:55;15.18;;;10.20;;
42754;SDS011;28407;51.830;5.684;2022-12-11T12:18:01;16.23;;;10.50;;
42754;SDS011;28407;51.830;5.684;2022-12-11T12:20:37;14.90;;;11.30;;
42754;SDS011;28407;51.830;5.684;2022-12-11T12:22:59;14.68;;;9.80;;
42754;SDS011;28407;51.830;5.684;2022-12-11T12:25:21;11.57;;;9.32;;
42754;SDS011;28407;51.830;5.684;2022-12-11T12:32:43;12.85;;;9.18;;
42754;SDS011;28407;51.830;5.684;2022-12-11T12:41:03;16.15;;;10.40;;
42754;SDS011;28407;51.830;5.684;2022-12-11T12:48:15;13.73;;;10.30;;
42754;SDS011;28407;51.830;5.684;2022-12-11T12:50:17;15.82;;;11.60;;
42754;SDS011;28407;51.830;5.684;2022-12-11T12:54:27;12.65;;;9.20;;
42754;SDS011;28407;51.830;5.684;2022-12-11T12:56:29;12.98;;;9.75;;
42754;SDS011;28407;51.830;5.684;2022-12-11T13:00:38;14.07;;;9.90;;
42754;SDS011;28407;51.830;5.684;2022-12-11T13:02:49;13.27;;;9.68;;
42754;SDS011;28407;51.830;5.684;2022-12-11T13:04:57;13.98;;;9.30;;
42754;SDS011;28407;51.830;5.684;2022-12-11T13:07:12;11.82;;;9.50;;
42754;SDS011;28407;51.830;5.684;2022-12-11T13:09:23;14.30;;;9.80;;
42754;SDS011;28407;51.830;5.684;2022-12-11T13:11:32;13.05;;;9.10;;
42754;SDS011;28407;51.830;5.684;2022-12-11T13:13:36;18.02;;;11.43;;
42754;SDS011;28407;51.830;5.684;2022-12-11T13:16:22;16.42;;;10.13;;
42754;SDS011;28407;51.830;5.684;2022-12-11T13:20:31;15.48;;;10.25;;
42754;SDS011;28407;51.830;5.684;2022-12-11T13:22:33;14.13;;;8.88;;
42754;SDS011;28407;51.830;5.684;2022-12-11T13:24:43;12.77;;;9.60;;
42754;SDS011;28407;51.830;5.684;2022-12-11T13:26:46;16.73;;;10.65;;
42754;SDS011;28407;51.830;5.684;2022-12-11T13:28:48;12.85;;;9.20;;